Time;durP1;ratioP1;P1;durP2;ratioP2;P2;SDS_P1;SDS_P2;PMS_P1;PMS_P2;Temp;Humidity;BMP_temperature;BMP_pressure;BME280_temperature;BME280_humidity;BME280_pressure;Samples;Min_cycle;Max_cycle;Signal;HPM_P1;HPM_P2
2024/02/27 00:01:35;;;;;;;4.05;1.90;;;4.90;93.10;;;;;;5073699;28;20052;-72
2024/02/27 00:04:01;;;;;;;3.85;2.10;;;4.80;93.10;;;;;;5072036;28;20048;-72
2024/02/27 00:06:28;;;;;;;4.40;1.80;;;4.70;93.10;;;;;;5092272;28;20039;-72
2024/02/27 00:08:54;;;;;;;3.53;1.80;;;4.70;93.20;;;;;;5092016;28;20048;-72
2024/02/27 00:11:20;;;;;;;4.18;1.83;;;4.70;93.20;;;;;;5091747;28;20475;-73
2024/02/27 00:13:46;;;;;;;3.45;1.65;;;4.70;93.20;;;;;;5092117;28;20047;-72
2024/02/27 00:16:13;;;;;;;4.50;1.70;;;4.60;93.20;;;;;;5091501;28;20036;-72
2024/02/27 00:18:39;;;;;;;2.83;1.58;;;4.60;93.30;;;;;;5072745;28;20182;-72
2024/02/27 00:21:04;;;;;;;3.95;1.75;;;4.60;93.30;;;;;;5073155;28;20123;-72
2024/02/27 00:23:31;;;;;;;3.63;1.70;;;4.60;93.30;;;;;;5073390;28;20032;-72
2024/02/27 00:25:57;;;;;;;4.30;2.10;;;4.70;93.30;;;;;;5092002;28;20381;-72
2024/02/27 00:28:23;;;;;;;2.95;1.50;;;4.60;93.30;;;;;;5056526;28;20047;-72
2024/02/27 00:30:48;;;;;;;3.97;1.60;;;4.50;93.30;;;;;;5072080;28;20133;-72
2024/02/27 00:33:14;;;;;;;3.88;1.95;;;4.50;93.30;;;;;;5073487;28;20055;-72
2024/02/27 00:35:40;;;;;;;3.70;1.40;;;4.50;93.30;;;;;;5075990;28;20045;-72
2024/02/27 00:38:05;;;;;;;5.30;2.13;;;4.50;93.30;;;;;;5094991;28;20131;-72
2024/02/27 00:40:31;;;;;;;3.47;1.60;;;4.50;93.30;;;;;;5077252;28;20044;-72
2024/02/27 00:42:57;;;;;;;4.70;2.15;;;4.50;93.30;;;;;;5076501;28;20051;-72
2024/02/27 00:45:22;;;;;;;4.28;1.80;;;4.50;93.30;;;;;;5076764;28;20074;-73
2024/02/27 00:47:48;;;;;;;3.08;1.50;;;4.50;93.30;;;;;;5094451;28;20131;-72
2024/02/27 00:50:14;;;;;;;5.18;2.20;;;4.50;93.30;;;;;;5076273;28;20071;-72
2024/02/27 00:52:39;;;;;;;4.47;2.15;;;4.50;93.30;;;;;;5094563;28;20040;-72
2024/02/27 00:55:05;;;;;;;4.00;1.90;;;4.50;93.30;;;;;;5094716;28;20036;-72
2024/02/27 00:57:33;;;;;;;3.63;1.73;;;4.40;93.30;;;;;;5094335;28;20055;-72
2024/02/27 01:00:03;;;;;;;4.40;2.08;;;4.40;93.30;;;;;;5094856;28;20462;-72
2024/02/27 01:02:29;;;;;;;4.65;2.00;;;4.40;93.30;;;;;;5093975;28;20047;-73
2024/02/27 01:04:55;;;;;;;4.55;2.10;;;4.40;93.30;;;;;;5059116;28;20036;-72
2024/02/27 01:07:20;;;;;;;5.30;1.90;;;4.40;93.30;;;;;;5093895;28;20032;-73
2024/02/27 01:09:46;;;;;;;3.50;1.83;;;4.40;93.30;;;;;;5094283;28;20040;-72
2024/02/27 01:12:12;;;;;;;5.00;2.30;;;4.40;93.30;;;;;;5076289;28;20382;-72
2024/02/27 01:14:38;;;;;;;4.95;2.30;;;4.40;93.30;;;;;;5074796;28;20055;-72
2024/02/27 01:17:03;;;;;;;4.30;2.10;;;4.30;93.30;;;;;;5075628;28;20040;-72
2024/02/27 01:19:29;;;;;;;4.80;2.45;;;4.40;93.30;;;;;;5075725;28;20036;-73
2024/02/27 01:21:59;;;;;;;3.78;1.92;;;4.40;93.30;;;;;;5076147;28;20131;-72
2024/02/27 01:24:25;;;;;;;4.32;1.92;;;4.40;93.30;;;;;;5073032;28;20040;-72
2024/02/27 01:26:51;;;;;;;3.92;1.92;;;4.40;93.30;;;;;;5094302;28;20089;-72
2024/02/27 01:29:16;;;;;;;2.70;1.60;;;4.40;93.30;;;;;;5074975;28;20557;-72
2024/02/27 01:31:42;;;;;;;4.35;1.98;;;4.40;93.30;;;;;;5093830;28;20351;-72
2024/02/27 01:34:09;;;;;;;3.67;1.67;;;4.40;93.20;;;;;;5094054;28;20466;-72
2024/02/27 01:36:34;;;;;;;4.35;1.80;;;4.50;93.30;;;;;;5075409;28;20085;-72
2024/02/27 01:39:00;;;;;;;3.65;1.80;;;4.40;93.20;;;;;;5076029;28;20032;-73
2024/02/27 01:41:26;;;;;;;4.03;2.00;;;4.40;93.20;;;;;;5093695;28;20088;-72
2024/02/27 01:43:52;;;;;;;4.10;1.65;;;4.40;93.20;;;;;;5093457;28;20044;-72
2024/02/27 01:46:19;;;;;;;4.70;2.10;;;4.40;93.20;;;;;;5074488;28;20055;-72
2024/02/27 01:48:46;;;;;;;5.28;2.30;;;4.40;93.10;;;;;;5093785;28;20036;-72
2024/02/27 01:51:14;;;;;;;3.20;1.80;;;4.40;93.10;;;;;;5075889;28;20036;-72
2024/02/27 01:53:43;;;;;;;4.68;2.22;;;4.40;93.20;;;;;;5093250;28;20036;-72
2024/02/27 01:56:11;;;;;;;3.10;1.60;;;4.30;93.20;;;;;;5089303;28;20051;-72
2024/02/27 01:58:38;;;;;;;4.50;2.25;;;4.30;93.20;;;;;;5075118;28;20123;-73
2024/02/27 02:01:04;;;;;;;4.95;1.98;;;4.30;93.20;;;;;;5093263;28;20044;-72
2024/02/27 02:03:37;;;;;;;3.97;1.85;;;4.30;93.20;;;;;;5093278;28;20135;-72
2024/02/27 02:06:04;;;;;;;3.83;1.80;;;4.30;93.20;;;;;;5093087;28;20113;-72
2024/02/27 02:08:29;;;;;;;4.03;1.73;;;4.20;93.20;;;;;;5092924;28;20040;-72
2024/02/27 02:10:55;;;;;;;4.25;1.85;;;4.20;93.20;;;;;;5093002;28;20055;-73
2024/02/27 02:13:21;;;;;;;4.25;1.80;;;4.20;93.20;;;;;;5093084;28;20044;-72
2024/02/27 02:15:47;;;;;;;4.70;2.20;;;4.10;93.20;;;;;;5092745;28;20075;-72
2024/02/27 02:18:13;;;;;;;3.47;1.58;;;4.10;93.30;;;;;;5074792;28;20097;-72
2024/02/27 02:20:40;;;;;;;4.55;2.03;;;4.10;93.30;;;;;;5093055;28;20052;-72
2024/02/27 02:23:06;;;;;;;5.55;2.53;;;4.00;93.30;;;;;;5092695;28;20126;-72
2024/02/27 02:25:35;;;;;;;4.03;1.90;;;4.00;93.30;;;;;;5093120;28;20091;-72
2024/02/27 02:28:00;;;;;;;2.83;1.65;;;4.00;93.30;;;;;;5074437;28;20110;-72
2024/02/27 02:30:26;;;;;;;4.07;1.83;;;3.90;93.30;;;;;;5074305;28;20146;-72
2024/02/27 02:32:52;;;;;;;4.53;2.20;;;4.00;93.40;;;;;;5092564;28;20139;-72
2024/02/27 02:35:18;;;;;;;2.17;1.25;;;3.90;93.40;;;;;;5074750;28;20100;-72
2024/02/27 02:37:47;;;;;;;3.03;1.45;;;4.00;93.40;;;;;;5092589;28;20150;-72
2024/02/27 02:40:13;;;;;;;3.83;1.90;;;3.80;93.40;;;;;;5093147;28;20115;-72
2024/02/27 02:42:39;;;;;;;3.30;1.58;;;3.80;93.40;;;;;;5074248;28;20044;-72
2024/02/27 02:45:05;;;;;;;2.80;1.50;;;3.80;93.50;;;;;;5092403;28;20096;-72
2024/02/27 02:47:31;;;;;;;3.65;1.58;;;3.70;93.50;;;;;;5092410;28;20121;-72
2024/02/27 02:49:56;;;;;;;4.32;1.90;;;3.70;93.50;;;;;;5074408;28;20090;-72
2024/02/27 02:52:22;;;;;;;2.58;1.42;;;3.70;93.80;;;;;;5092489;28;20047;-72
2024/02/27 02:54:48;;;;;;;3.47;1.38;;;3.70;93.50;;;;;;5092600;28;20040;-72
2024/02/27 02:57:13;;;;;;;4.68;1.80;;;3.60;93.50;;;;;;5074127;28;20066;-73
2024/02/27 02:59:39;;;;;;;4.10;1.70;;;3.60;93.60;;;;;;5092662;28;20485;-72
2024/02/27 03:02:05;;;;;;;3.65;1.70;;;3.60;93.50;;;;;;5074106;28;20040;-72
2024/02/27 03:04:30;;;;;;;3.20;1.60;;;3.60;93.60;;;;;;5092486;28;20040;-72
2024/02/27 03:06:56;;;;;;;3.63;1.70;;;3.50;93.60;;;;;;5092011;28;20113;-72
2024/02/27 03:09:22;;;;;;;3.65;1.55;;;3.50;93.60;;;;;;5092297;28;20046;-71
2024/02/27 03:11:49;;;;;;;2.92;1.52;;;3.50;93.60;;;;;;5072199;28;20063;-72
2024/02/27 03:14:16;;;;;;;2.03;1.20;;;3.50;93.60;;;;;;5073809;28;20075;-72
2024/02/27 03:16:42;;;;;;;4.00;1.88;;;3.50;93.60;;;;;;5092224;28;20048;-72
2024/02/27 03:19:07;;;;;;;3.28;1.42;;;3.50;93.60;;;;;;5092230;28;20043;-72
2024/02/27 03:21:33;;;;;;;3.45;1.30;;;3.50;93.50;;;;;;5092392;28;20122;-72
2024/02/27 03:23:59;;;;;;;4.30;1.60;;;3.50;93.60;;;;;;5073539;28;20508;-72
2024/02/27 03:26:25;;;;;;;3.33;1.60;;;3.50;93.50;;;;;;5057025;28;20044;-72
2024/02/27 03:28:51;;;;;;;3.47;1.38;;;3.50;93.50;;;;;;5092058;28;20051;-72
2024/02/27 03:31:16;;;;;;;3.38;1.60;;;3.50;93.60;;;;;;5074031;28;20389;-72
2024/02/27 03:33:42;;;;;;;3.40;1.45;;;3.40;93.50;;;;;;5073741;28;20174;-72
2024/02/27 03:36:09;;;;;;;2.30;1.15;;;3.40;93.60;;;;;;5073580;28;20402;-72
2024/02/27 03:38:36;;;;;;;2.78;1.23;;;3.40;93.60;;;;;;5071910;28;20041;-72
2024/02/27 03:41:01;;;;;;;3.17;1.30;;;3.30;93.60;;;;;;5073549;28;20042;-72
2024/02/27 03:43:28;;;;;;;2.10;1.05;;;3.40;93.60;;;;;;5073723;28;20122;-72
2024/02/27 03:45:53;;;;;;;4.32;1.70;;;3.40;93.60;;;;;;5091966;28;20044;-72
2024/02/27 03:48:19;;;;;;;2.97;1.42;;;3.40;93.60;;;;;;5091693;28;20070;-72
2024/02/27 03:50:44;;;;;;;3.83;1.67;;;3.30;93.60;;;;;;5073460;28;20459;-72
2024/02/27 03:53:10;;;;;;;1.95;1.13;;;3.30;93.60;;;;;;5091557;28;20035;-72
2024/02/27 03:55:37;;;;;;;1.73;1.05;;;3.30;93.60;;;;;;5091492;28;20083;-72
2024/02/27 03:58:03;;;;;;;1.88;1.00;;;3.20;93.60;;;;;;5073952;28;20454;-72
2024/02/27 04:00:28;;;;;;;2.75;1.30;;;3.20;93.60;;;;;;5092158;28;20465;-72
2024/02/27 04:02:55;;;;;;;2.53;1.27;;;3.20;93.70;;;;;;5091467;28;20032;-72
2024/02/27 04:05:22;;;;;;;3.30;1.67;;;3.20;93.70;;;;;;5073952;28;20055;-72
2024/02/27 04:07:47;;;;;;;4.00;1.67;;;3.20;93.70;;;;;;5091234;28;20047;-72
2024/02/27 04:10:13;;;;;;;3.22;1.45;;;3.20;93.70;;;;;;5093903;28;20036;-72
2024/02/27 04:12:39;;;;;;;2.60;1.23;;;3.20;93.70;;;;;;5058461;28;20037;-72
2024/02/27 04:15:06;;;;;;;2.38;1.30;;;3.20;93.70;;;;;;5094845;28;20040;-72
2024/02/27 04:17:32;;;;;;;3.50;1.38;;;3.10;93.60;;;;;;5094917;28;20047;-72
2024/02/27 04:19:58;;;;;;;3.13;1.40;;;3.10;93.70;;;;;;5076822;28;20040;-73
2024/02/27 04:22:24;;;;;;;2.75;1.50;;;3.10;93.70;;;;;;5060052;28;20039;-72
2024/02/27 04:24:49;;;;;;;3.67;1.45;;;3.10;93.70;;;;;;5076249;28;20489;-72
2024/02/27 04:27:16;;;;;;;3.17;1.38;;;3.10;93.70;;;;;;5075663;28;20040;-72
2024/02/27 04:29:42;;;;;;;2.80;1.55;;;3.10;93.60;;;;;;5094845;28;20124;-72
2024/02/27 04:32:07;;;;;;;3.53;1.58;;;3.10;93.70;;;;;;5094443;28;20123;-72
2024/02/27 04:34:33;;;;;;;2.67;1.20;;;3.10;93.70;;;;;;5094509;28;20042;-72
2024/02/27 04:37:00;;;;;;;2.83;1.52;;;3.10;93.70;;;;;;5076742;28;20032;-72
2024/02/27 04:39:26;;;;;;;4.05;1.95;;;3.10;93.70;;;;;;5074778;28;20081;-72
2024/02/27 04:41:52;;;;;;;3.13;1.42;;;3.10;93.70;;;;;;5094877;28;20073;-72
2024/02/27 04:44:19;;;;;;;4.47;1.83;;;3.10;93.70;;;;;;5075775;28;20036;-72
2024/02/27 04:46:45;;;;;;;2.78;1.25;;;3.00;93.60;;;;;;5094238;28;20400;-72
2024/02/27 04:49:11;;;;;;;3.42;1.60;;;3.10;93.70;;;;;;5076277;28;20043;-72
2024/02/27 04:51:37;;;;;;;1.77;1.10;;;3.10;93.70;;;;;;5094265;28;20046;-72
2024/02/27 04:54:03;;;;;;;3.17;1.63;;;3.00;93.70;;;;;;5094107;28;20477;-72
2024/02/27 04:56:29;;;;;;;3.65;1.67;;;3.00;93.70;;;;;;5076294;28;20081;-72
2024/02/27 04:58:55;;;;;;;3.78;1.60;;;3.00;93.70;;;;;;5094151;28;20040;-72
2024/02/27 05:01:21;;;;;;;2.90;1.40;;;3.10;93.70;;;;;;5094381;28;20044;-72
2024/02/27 05:03:47;;;;;;;3.60;1.60;;;3.00;93.60;;;;;;5075193;28;20474;-72
2024/02/27 05:06:13;;;;;;;3.80;1.52;;;3.00;93.60;;;;;;5074512;28;20043;-72
2024/02/27 05:08:38;;;;;;;2.70;1.33;;;3.00;93.60;;;;;;5076312;28;20033;-72
2024/02/27 05:11:04;;;;;;;4.00;1.88;;;3.00;93.70;;;;;;5093968;28;20047;-72
2024/02/27 05:13:30;;;;;;;3.25;1.45;;;2.90;93.60;;;;;;5094548;28;20040;-72
2024/02/27 05:15:56;;;;;;;3.28;1.50;;;2.90;93.70;;;;;;5094720;28;20382;-72
2024/02/27 05:18:21;;;;;;;2.88;1.23;;;2.90;93.70;;;;;;5094617;28;20354;-72
2024/02/27 05:20:47;;;;;;;3.53;1.30;;;2.90;93.70;;;;;;5093576;28;20097;-72
2024/02/27 05:23:14;;;;;;;3.88;1.60;;;2.90;93.70;;;;;;5094109;28;20036;-73
2024/02/27 05:25:41;;;;;;;2.80;1.25;;;2.90;93.70;;;;;;5075923;28;20040;-72
2024/02/27 05:28:06;;;;;;;4.10;1.40;;;2.90;93.70;;;;;;5094366;28;20131;-73
2024/02/27 05:30:32;;;;;;;2.45;1.40;;;2.90;93.70;;;;;;5059207;28;20455;-72
2024/02/27 05:32:58;;;;;;;3.10;1.60;;;2.90;93.70;;;;;;5094317;28;20051;-72
2024/02/27 05:35:23;;;;;;;3.30;1.30;;;2.90;93.70;;;;;;5076156;28;20047;-72
2024/02/27 05:37:49;;;;;;;3.22;1.63;;;2.90;93.70;;;;;;5093934;28;20051;-72
2024/02/27 05:40:15;;;;;;;3.42;1.40;;;2.80;93.70;;;;;;5094254;28;20040;-72
2024/02/27 05:42:41;;;;;;;2.85;1.30;;;2.80;93.80;;;;;;5094215;28;20594;-72
2024/02/27 05:45:07;;;;;;;3.13;1.35;;;2.90;93.80;;;;;;5076160;28;20394;-72
2024/02/27 05:47:33;;;;;;;3.20;1.60;;;2.80;93.70;;;;;;5093832;28;20048;-72
2024/02/27 05:49:59;;;;;;;3.13;1.60;;;2.80;93.70;;;;;;5075830;28;20044;-72
2024/02/27 05:52:25;;;;;;;3.22;1.38;;;2.80;93.80;;;;;;5076169;28;20543;-72
2024/02/27 05:54:50;;;;;;;3.33;1.52;;;2.80;93.80;;;;;;5094017;28;20045;-72
2024/02/27 05:57:16;;;;;;;3.08;1.55;;;2.80;93.80;;;;;;5093992;28;20449;-72
2024/02/27 05:59:42;;;;;;;2.33;1.35;;;2.80;93.70;;;;;;5093927;28;20036;-72
2024/02/27 06:02:08;;;;;;;4.05;1.73;;;2.70;93.80;;;;;;5093687;28;20515;-72
2024/02/27 06:04:34;;;;;;;2.97;1.55;;;2.80;93.70;;;;;;5093989;28;20040;-72
2024/02/27 06:07:00;;;;;;;3.42;1.63;;;2.70;93.70;;;;;;5058431;28;20542;-72
2024/02/27 06:09:25;;;;;;;2.70;1.27;;;2.80;93.80;;;;;;5093183;28;20040;-72
2024/02/27 06:11:51;;;;;;;3.03;1.55;;;2.70;93.70;;;;;;5093104;28;20138;-73
2024/02/27 06:14:17;;;;;;;2.42;1.52;;;2.80;93.80;;;;;;5093591;28;20043;-72
2024/02/27 06:16:43;;;;;;;3.25;1.30;;;2.80;93.80;;;;;;5075470;28;20040;-72
2024/02/27 06:19:09;;;;;;;3.15;1.38;;;2.80;93.80;;;;;;5093468;28;20510;-73
2024/02/27 06:24:18;;;;;;;3.08;1.55;;;2.80;93.80;;;;;;5077631;28;20465;-73
2024/02/27 06:26:44;;;;;;;2.80;1.40;;;2.80;93.80;;;;;;5074189;28;20127;-72
2024/02/27 06:29:09;;;;;;;1.67;1.05;;;2.80;93.70;;;;;;5074733;28;20118;-72
2024/02/27 06:31:35;;;;;;;4.00;1.63;;;2.90;93.80;;;;;;5074603;28;20083;-72
2024/02/27 06:34:03;;;;;;;2.90;1.50;;;2.80;93.80;;;;;;5093109;28;20048;-72
2024/02/27 06:36:31;;;;;;;2.50;1.30;;;2.80;93.70;;;;;;5075706;28;20123;-72
2024/02/27 06:38:57;;;;;;;3.28;1.50;;;2.90;93.70;;;;;;5075257;28;20093;-72
2024/02/27 06:41:23;;;;;;;3.50;1.48;;;2.90;93.70;;;;;;5092734;28;20393;-72
2024/02/27 06:43:49;;;;;;;2.08;1.20;;;2.90;93.70;;;;;;5092709;28;20376;-72
2024/02/27 06:46:15;;;;;;;2.33;1.20;;;2.90;93.70;;;;;;5092755;28;20039;-72
2024/02/27 06:48:41;;;;;;;3.28;1.52;;;2.90;93.70;;;;;;5075063;28;20036;-72
2024/02/27 06:51:08;;;;;;;2.53;1.30;;;2.90;93.70;;;;;;5074475;28;20048;-72
2024/02/27 06:53:35;;;;;;;1.92;1.00;;;2.90;93.70;;;;;;5092589;28;20047;-72
2024/02/27 06:56:01;;;;;;;4.30;1.58;;;3.00;93.80;;;;;;5092508;28;20484;-72
2024/02/27 06:58:27;;;;;;;3.00;1.48;;;3.00;93.80;;;;;;5074534;28;20063;-72
2024/02/27 07:00:53;;;;;;;3.65;1.40;;;3.00;93.70;;;;;;5092362;28;20040;-71
2024/02/27 07:03:18;;;;;;;3.83;1.45;;;3.00;93.70;;;;;;5074593;28;20043;-71
2024/02/27 07:05:44;;;;;;;3.80;1.70;;;3.10;93.70;;;;;;5092221;28;20040;-72
2024/02/27 07:08:10;;;;;;;3.13;1.45;;;3.10;93.70;;;;;;5074457;28;20036;-72
2024/02/27 07:10:38;;;;;;;3.42;1.42;;;3.10;93.70;;;;;;5074183;28;20043;-72
2024/02/27 07:13:06;;;;;;;3.28;1.50;;;3.10;93.70;;;;;;5073431;28;20049;-72
2024/02/27 07:15:33;;;;;;;4.68;1.83;;;3.10;93.60;;;;;;5073105;28;20036;-71
2024/02/27 07:17:58;;;;;;;5.13;1.50;;;3.10;93.60;;;;;;5055946;28;20557;-71
2024/02/27 07:20:31;;;;;;;3.40;1.42;;;3.10;93.60;;;;;;5092725;28;20079;-72
2024/02/27 07:22:56;;;;;;;3.42;1.40;;;3.10;93.60;;;;;;5017389;28;20045;-71
2024/02/27 07:25:22;;;;;;;2.15;1.20;;;3.20;93.60;;;;;;5049899;28;20612;-71
2024/02/27 07:27:48;;;;;;;3.08;1.40;;;3.10;93.60;;;;;;5033524;28;20044;-71
2024/02/27 07:30:15;;;;;;;3.50;1.50;;;3.20;93.60;;;;;;5033367;28;20049;-71
2024/02/27 07:32:41;;;;;;;3.60;1.70;;;3.20;93.70;;;;;;5050036;28;20078;-71
2024/02/27 07:35:08;;;;;;;3.72;1.60;;;3.20;93.60;;;;;;5016679;28;20086;-71
2024/02/27 07:37:34;;;;;;;3.38;1.70;;;3.20;93.60;;;;;;5032944;28;20044;-72
2024/02/27 07:40:00;;;;;;;2.45;1.17;;;3.30;93.60;;;;;;5050407;28;20441;-72
2024/02/27 07:42:26;;;;;;;3.65;1.48;;;3.30;93.60;;;;;;5033068;28;20094;-72
2024/02/27 07:44:52;;;;;;;2.30;1.40;;;3.30;93.60;;;;;;5053265;28;20461;-72
2024/02/27 07:47:17;;;;;;;2.17;1.20;;;3.30;93.60;;;;;;5037084;28;20558;-71
2024/02/27 07:49:45;;;;;;;3.10;1.20;;;3.40;93.60;;;;;;5051137;28;20509;-71
2024/02/27 07:52:11;;;;;;;3.17;1.40;;;3.40;93.90;;;;;;5036512;28;20044;-72
2024/02/27 07:54:38;;;;;;;2.17;1.20;;;3.50;93.60;;;;;;5068353;28;20047;-71
2024/02/27 07:57:04;;;;;;;4.18;1.48;;;3.50;93.50;;;;;;5095404;28;20028;-72
2024/02/27 07:59:30;;;;;;;5.10;1.60;;;3.60;93.50;;;;;;5091751;28;20043;-71
2024/02/27 08:01:55;;;;;;;2.55;1.35;;;3.70;93.50;;;;;;5095526;28;20044;-71
2024/02/27 08:04:21;;;;;;;2.60;1.42;;;3.70;93.50;;;;;;5077167;28;20067;-72
2024/02/27 08:06:47;;;;;;;3.83;1.58;;;3.80;93.50;;;;;;5077674;28;20048;-71
2024/02/27 08:09:13;;;;;;;3.22;1.63;;;3.80;93.40;;;;;;5060297;28;20044;-71
2024/02/27 08:11:39;;;;;;;2.63;1.33;;;3.90;93.40;;;;;;5077571;28;20040;-71
2024/02/27 08:14:04;;;;;;;3.15;1.55;;;3.90;93.40;;;;;;5095178;28;20040;-72
2024/02/27 08:16:31;;;;;;;3.95;1.40;;;4.00;93.40;;;;;;5095498;28;20059;-71
2024/02/27 08:18:56;;;;;;;2.42;1.20;;;4.10;93.40;;;;;;5095610;28;20048;-72
2024/02/27 08:21:22;;;;;;;2.40;1.38;;;4.10;93.40;;;;;;5075650;28;20098;-72
2024/02/27 08:23:48;;;;;;;3.85;1.55;;;4.20;93.30;;;;;;5094943;28;20039;-71
2024/02/27 08:26:13;;;;;;;2.45;1.42;;;4.30;93.30;;;;;;5076725;28;20105;-72
2024/02/27 08:28:39;;;;;;;2.72;1.40;;;4.30;93.20;;;;;;5095326;28;20040;-72
2024/02/27 08:31:05;;;;;;;3.78;1.50;;;4.30;93.20;;;;;;5076825;28;20072;-72
2024/02/27 08:33:30;;;;;;;2.88;1.48;;;4.40;93.30;;;;;;5077334;28;20455;-72
2024/02/27 08:35:56;;;;;;;3.17;1.65;;;4.50;93.20;;;;;;5095007;28;20092;-72
2024/02/27 08:38:23;;;;;;;3.05;1.48;;;4.60;93.20;;;;;;5095266;28;20040;-72
2024/02/27 08:40:49;;;;;;;4.72;2.10;;;4.60;93.10;;;;;;5094670;28;20036;-72
2024/02/27 08:43:15;;;;;;;4.43;1.92;;;4.60;93.10;;;;;;5076625;28;20113;-73
2024/02/27 08:45:43;;;;;;;3.42;1.80;;;4.60;93.10;;;;;;5095226;28;20044;-72
2024/02/27 08:48:08;;;;;;;3.10;1.50;;;4.70;93.10;;;;;;5095172;28;20105;-72
2024/02/27 08:50:34;;;;;;;2.40;1.30;;;4.60;93.00;;;;;;5094999;28;20048;-72
2024/02/27 08:53:00;;;;;;;4.85;2.00;;;4.60;93.20;;;;;;5076564;28;20036;-72
2024/02/27 08:55:26;;;;;;;3.83;1.83;;;4.80;93.30;;;;;;5093515;28;20043;-72
2024/02/27 08:57:52;;;;;;;3.20;1.52;;;4.80;93.10;;;;;;5094574;28;20119;-72
2024/02/27 09:00:19;;;;;;;2.15;1.20;;;4.80;93.10;;;;;;5076337;28;20051;-73
2024/02/27 09:02:44;;;;;;;3.13;1.73;;;4.80;93.10;;;;;;5094893;28;20050;-72
2024/02/27 09:05:10;;;;;;;2.65;1.50;;;4.90;93.10;;;;;;5094757;28;20101;-72
2024/02/27 09:07:41;;;;;;;1.95;0.98;;;4.80;93.10;;;;;;5094875;28;20371;-71
2024/02/27 09:10:09;;;;;;;2.75;1.30;;;4.90;93.10;;;;;;5094154;28;20040;-72
2024/02/27 09:12:35;;;;;;;1.45;0.90;;;4.90;93.10;;;;;;5076061;28;20036;-71
2024/02/27 09:15:00;;;;;;;1.85;1.20;;;5.00;93.10;;;;;;5094740;28;20100;-71
2024/02/27 09:17:26;;;;;;;3.22;1.50;;;5.00;93.00;;;;;;5075993;28;20131;-72
2024/02/27 09:19:52;;;;;;;4.30;1.88;;;5.00;93.10;;;;;;5094162;28;20046;-72
2024/02/27 09:22:17;;;;;;;3.28;1.40;;;5.00;93.00;;;;;;5075373;28;20052;-72
2024/02/27 09:24:43;;;;;;;3.45;1.90;;;5.00;93.10;;;;;;5093990;28;20039;-72
2024/02/27 09:27:09;;;;;;;3.72;1.98;;;5.00;93.00;;;;;;5076077;28;20040;-72
2024/02/27 09:29:35;;;;;;;3.80;2.00;;;5.00;93.00;;;;;;5058810;28;20393;-72
2024/02/27 09:32:01;;;;;;;3.63;1.67;;;4.90;93.00;;;;;;5094211;28;20089;-72
2024/02/27 09:34:27;;;;;;;2.97;1.45;;;4.90;93.10;;;;;;5094513;28;20066;-71
2024/02/27 09:36:54;;;;;;;3.40;1.58;;;5.00;93.20;;;;;;5075873;28;20042;-70
2024/02/27 09:39:23;;;;;;;2.90;1.48;;;5.00;93.20;;;;;;5059441;28;20060;-70
2024/02/27 09:42:15;;;;;;;4.38;2.17;;;5.10;93.20;;;;;;5043470;28;20039;-70
2024/02/27 09:44:44;;;;;;;3.15;1.55;;;5.20;93.10;;;;;;5090013;28;20126;-71
2024/02/27 09:47:12;;;;;;;2.15;1.20;;;5.10;93.10;;;;;;5093729;28;20118;-72
2024/02/27 09:49:42;;;;;;;2.63;1.40;;;5.20;93.10;;;;;;5093955;28;20040;-72
2024/02/27 09:52:14;;;;;;;2.60;1.20;;;5.20;93.10;;;;;;5075329;28;20078;-72
2024/02/27 09:54:41;;;;;;;2.67;1.40;;;5.30;93.00;;;;;;5093937;28;20379;-71
2024/02/27 09:57:07;;;;;;;3.35;1.60;;;5.40;93.00;;;;;;5093485;28;20451;-71
2024/02/27 09:59:33;;;;;;;4.45;1.80;;;5.40;93.00;;;;;;5075318;28;20043;-71
2024/02/27 10:02:14;;;;;;;2.38;1.38;;;5.40;92.90;;;;;;5075381;28;20367;-71
2024/02/27 10:04:40;;;;;;;2.40;1.20;;;5.50;92.90;;;;;;5093087;28;20039;-72
2024/02/27 10:07:10;;;;;;;2.90;1.50;;;5.60;93.00;;;;;;5093651;28;20493;-72
2024/02/27 10:09:39;;;;;;;1.17;0.98;;;5.70;92.90;;;;;;5075574;28;20039;-71
2024/02/27 10:12:05;;;;;;;3.78;1.67;;;5.60;92.80;;;;;;5093018;28;20036;-72
2024/02/27 10:14:33;;;;;;;3.00;1.42;;;5.60;92.80;;;;;;5093404;28;20036;-72
2024/02/27 10:16:59;;;;;;;1.50;0.85;;;5.60;92.80;;;;;;5075318;28;20047;-71
2024/02/27 10:19:27;;;;;;;1.70;0.95;;;5.60;92.90;;;;;;5074948;28;20040;-71
2024/02/27 10:21:54;;;;;;;1.80;0.90;;;5.70;93.00;;;;;;5057675;28;20032;-71
2024/02/27 10:24:21;;;;;;;1.75;0.93;;;5.80;93.00;;;;;;5093257;28;20040;-70
2024/02/27 10:26:56;;;;;;;2.15;1.13;;;6.00;92.90;;;;;;5074879;28;20040;-71
2024/02/27 10:29:23;;;;;;;2.50;1.20;;;6.00;92.80;;;;;;5075349;28;20044;-71
2024/02/27 10:31:50;;;;;;;1.83;1.17;;;6.20;92.70;;;;;;5092843;28;20587;-72
2024/02/27 10:34:16;;;;;;;2.25;1.15;;;6.20;92.60;;;;;;5093167;28;20032;-72
2024/02/27 10:36:42;;;;;;;2.40;1.42;;;6.20;92.50;;;;;;5074926;28;20481;-72
2024/02/27 10:39:09;;;;;;;2.60;1.35;;;6.30;92.60;;;;;;5093154;28;20047;-72
2024/02/27 10:41:39;;;;;;;2.55;1.25;;;6.30;92.60;;;;;;5092651;28;20105;-71
2024/02/27 10:44:08;;;;;;;1.52;1.00;;;6.50;92.70;;;;;;5092920;28;20040;-71
2024/02/27 10:46:38;;;;;;;1.70;1.00;;;6.60;92.50;;;;;;5093185;28;20040;-71
2024/02/27 10:49:04;;;;;;;2.70;1.27;;;6.70;92.50;;;;;;5092651;28;20032;-71
2024/02/27 10:51:30;;;;;;;3.40;1.58;;;6.70;92.40;;;;;;5093000;28;20290;-71
2024/02/27 10:53:58;;;;;;;1.40;1.02;;;6.70;92.30;;;;;;5092365;28;20040;-72
2024/02/27 10:56:24;;;;;;;1.60;1.00;;;6.60;92.30;;;;;;5092525;28;20367;-72
2024/02/27 10:58:52;;;;;;;2.17;1.10;;;6.50;92.40;;;;;;5057704;28;20047;-72
2024/02/27 11:01:18;;;;;;;1.90;1.10;;;6.50;92.50;;;;;;5074435;28;20096;-71
2024/02/27 11:03:49;;;;;;;2.47;1.02;;;6.60;92.50;;;;;;5057521;28;20047;-72
2024/02/27 11:06:22;;;;;;;2.20;1.38;;;6.60;92.50;;;;;;5058403;28;20036;-71
2024/02/27 11:08:55;;;;;;;2.65;1.40;;;6.60;92.50;;;;;;5075004;28;20505;-71
2024/02/27 11:11:24;;;;;;;1.58;1.02;;;6.80;92.60;;;;;;5072759;28;20052;-71
2024/02/27 11:13:52;;;;;;;2.47;1.25;;;6.90;92.50;;;;;;5092323;28;20378;-71
2024/02/27 11:16:21;;;;;;;2.28;1.15;;;6.90;92.40;;;;;;5092591;28;20036;-70
2024/02/27 11:18:53;;;;;;;2.30;1.20;;;6.90;92.40;;;;;;5073725;28;20039;-72
2024/02/27 11:21:21;;;;;;;3.22;1.48;;;7.00;92.40;;;;;;5092108;28;20123;-72
2024/02/27 11:23:47;;;;;;;2.08;1.23;;;7.00;92.40;;;;;;5074008;28;20126;-71
2024/02/27 11:26:13;;;;;;;3.10;1.60;;;7.10;92.40;;;;;;5092142;28;20070;-71
2024/02/27 11:28:40;;;;;;;2.35;1.20;;;7.10;92.20;;;;;;5072691;28;20040;-71
2024/02/27 11:31:07;;;;;;;2.45;1.23;;;7.20;92.30;;;;;;5092592;28;20036;-71
2024/02/27 11:33:51;;;;;;;2.80;1.35;;;7.30;92.20;;;;;;5092112;28;20127;-72
2024/02/27 11:36:17;;;;;;;2.45;1.40;;;7.30;92.00;;;;;;5052708;28;20174;-71
2024/02/27 11:38:43;;;;;;;2.72;1.20;;;7.40;92.10;;;;;;5073743;28;20137;-71
2024/02/27 11:41:17;;;;;;;2.22;1.20;;;7.40;92.00;;;;;;5072317;28;20037;-70
2024/02/27 11:43:48;;;;;;;1.60;1.00;;;7.50;92.00;;;;;;5073862;28;20525;-70
2024/02/27 11:46:36;;;;;;;3.00;1.48;;;7.50;92.00;;;;;;5074174;28;20039;-71
2024/02/27 11:49:03;;;;;;;2.25;1.20;;;7.50;92.00;;;;;;5074349;28;20497;-71
2024/02/27 11:51:32;;;;;;;2.53;1.40;;;7.60;92.00;;;;;;5074259;28;20043;-71
2024/02/27 11:53:59;;;;;;;1.60;1.05;;;7.60;92.00;;;;;;5091996;28;20064;-71
2024/02/27 11:56:32;;;;;;;2.28;1.30;;;7.70;92.00;;;;;;5072588;28;20037;-71
2024/02/27 11:58:58;;;;;;;3.05;1.30;;;7.90;92.00;;;;;;5071065;28;20049;-71
2024/02/27 12:01:24;;;;;;;1.92;1.10;;;8.00;91.80;;;;;;5072211;28;20059;-71
2024/02/27 12:03:50;;;;;;;1.60;1.13;;;8.00;91.70;;;;;;5073580;28;20106;-70
2024/02/27 12:06:16;;;;;;;1.85;1.15;;;8.10;91.70;;;;;;5091620;28;20051;-71
2024/02/27 12:08:46;;;;;;;3.85;1.90;;;8.10;91.70;;;;;;5092003;28;20385;-70
2024/02/27 12:11:14;;;;;;;2.90;1.58;;;8.10;91.60;;;;;;5071928;28;20109;-70
2024/02/27 12:13:40;;;;;;;3.20;1.60;;;8.00;91.70;;;;;;5091896;28;20040;-72
2024/02/27 12:16:06;;;;;;;3.40;1.58;;;7.90;91.60;;;;;;5091170;28;20115;-73
2024/02/27 12:18:33;;;;;;;2.55;1.27;;;7.80;91.70;;;;;;5056478;28;20522;-72
2024/02/27 12:21:00;;;;;;;3.08;1.35;;;7.90;91.80;;;;;;5091879;28;20040;-72
2024/02/27 12:23:28;;;;;;;2.53;1.42;;;7.80;91.80;;;;;;5091968;28;20052;-72
2024/02/27 12:25:54;;;;;;;2.55;1.45;;;7.80;92.00;;;;;;5091449;28;20489;-72
2024/02/27 12:28:20;;;;;;;2.42;1.50;;;8.00;91.90;;;;;;5091754;28;20042;-71
2024/02/27 12:30:47;;;;;;;2.95;1.63;;;8.10;91.80;;;;;;5093144;28;20128;-71
2024/02/27 12:33:15;;;;;;;2.20;1.25;;;8.20;91.60;;;;;;5094633;28;20393;-71
2024/02/27 12:35:43;;;;;;;2.55;1.42;;;8.20;91.50;;;;;;5060259;28;20043;-71
2024/02/27 12:38:08;;;;;;;2.60;1.45;;;8.30;91.50;;;;;;5077081;28;20040;-71
2024/02/27 12:40:35;;;;;;;2.75;1.63;;;8.30;91.40;;;;;;5095141;28;20504;-72
2024/02/27 12:43:02;;;;;;;2.42;1.20;;;8.40;91.50;;;;;;5041873;28;20043;-72
2024/02/27 12:45:30;;;;;;;2.80;1.38;;;8.40;91.30;;;;;;5076571;28;20052;-72
2024/02/27 12:47:56;;;;;;;4.13;1.85;;;8.50;91.20;;;;;;5094770;28;20078;-71
2024/02/27 12:50:23;;;;;;;3.42;1.83;;;8.50;91.20;;;;;;5094575;28;20417;-72
2024/02/27 12:52:53;;;;;;;3.78;1.90;;;8.50;91.30;;;;;;5059577;28;20040;-73
2024/02/27 12:55:20;;;;;;;4.53;1.90;;;8.40;91.20;;;;;;5094348;28;20578;-71
2024/02/27 12:58:01;;;;;;;4.00;2.08;;;8.40;91.20;;;;;;5094373;28;20032;-70